sensor_id;sensor_type;location;lat;lon;timestamp;P1;durP1;ratioP1;P2;durP2;ratioP2
48623;SDS011;34422;45.802;16.114;2023-06-05T00:01:03;14.45;;;9.98;;
48623;SDS011;34422;45.802;16.114;2023-06-05T00:03:30;12.10;;;9.85;;
48623;SDS011;34422;45.802;16.114;2023-06-05T00:05:57;13.07;;;9.65;;
48623;SDS011;34422;45.802;16.114;2023-06-05T00:08:23;11.57;;;8.88;;
48623;SDS011;34422;45.802;16.114;2023-06-05T00:10:50;11.70;;;9.25;;
48623;SDS011;34422;45.802;16.114;2023-06-05T00:13:17;10.85;;;9.65;;
48623;SDS011;34422;45.802;16.114;2023-06-05T00:15:44;11.07;;;9.13;;
48623;SDS011;34422;45.802;16.114;2023-06-05T00:18:11;12.93;;;9.70;;
48623;SDS011;34422;45.802;16.114;2023-06-05T00:20:38;13.63;;;10.20;;
48623;SDS011;34422;45.802;16.114;2023-06-05T00:23:05;13.48;;;10.50;;
48623;SDS011;34422;45.802;16.114;2023-06-05T00:25:32;13.05;;;10.70;;
48623;SDS011;34422;45.802;16.114;2023-06-05T00:27:58;12.32;;;10.07;;
48623;SDS011;34422;45.802;16.114;2023-06-05T00:30:25;12.90;;;10.63;;
48623;SDS011;34422;45.802;16.114;2023-06-05T00:32:52;12.00;;;9.75;;
48623;SDS011;34422;45.802;16.114;2023-06-05T00:35:19;14.07;;;9.82;;
48623;SDS011;34422;45.802;16.114;2023-06-05T00:37:46;14.13;;;9.25;;
48623;SDS011;34422;45.802;16.114;2023-06-05T00:40:13;12.00;;;9.15;;
48623;SDS011;34422;45.802;16.114;2023-06-05T00:42:39;12.85;;;9.10;;
48623;SDS011;34422;45.802;16.114;2023-06-05T00:45:08;10.98;;;8.85;;
48623;SDS011;34422;45.802;16.114;2023-06-05T00:47:35;12.05;;;9.55;;
48623;SDS011;34422;45.802;16.114;2023-06-05T00:50:03;13.13;;;10.32;;
48623;SDS011;34422;45.802;16.114;2023-06-05T00:52:30;12.50;;;9.90;;
48623;SDS011;34422;45.802;16.114;2023-06-05T00:54:58;14.95;;;11.02;;
48623;SDS011;34422;45.802;16.114;2023-06-05T00:57:27;12.68;;;9.82;;
48623;SDS011;34422;45.802;16.114;2023-06-05T00:59:54;12.30;;;9.63;;
48623;SDS011;34422;45.802;16.114;2023-06-05T01:02:21;14.07;;;10.02;;
48623;SDS011;34422;45.802;16.114;2023-06-05T01:04:48;11.85;;;9.73;;
48623;SDS011;34422;45.802;16.114;2023-06-05T01:07:15;10.40;;;8.90;;
48623;SDS011;34422;45.802;16.114;2023-06-05T01:09:42;11.25;;;9.73;;
48623;SDS011;34422;45.802;16.114;2023-06-05T01:14:49;13.50;;;10.25;;
48623;SDS011;34422;45.802;16.114;2023-06-05T01:17:18;11.70;;;10.00;;
48623;SDS011;34422;45.802;16.114;2023-06-05T01:19:46;11.50;;;9.00;;
48623;SDS011;34422;45.802;16.114;2023-06-05T01:22:16;11.05;;;8.98;;
48623;SDS011;34422;45.802;16.114;2023-06-05T01:24:42;15.43;;;9.55;;
48623;SDS011;34422;45.802;16.114;2023-06-05T01:27:25;11.35;;;9.15;;
48623;SDS011;34422;45.802;16.114;2023-06-05T01:33:17;18.13;;;9.23;;
48623;SDS011;34422;45.802;16.114;2023-06-05T01:35:46;15.07;;;9.05;;
48623;SDS011;34422;45.802;16.114;2023-06-05T01:38:18;13.57;;;11.07;;
48623;SDS011;34422;45.802;16.114;2023-06-05T01:40:46;18.08;;;11.63;;
48623;SDS011;34422;45.802;16.114;2023-06-05T01:43:14;13.50;;;10.75;;
48623;SDS011;34422;45.802;16.114;2023-06-05T01:45:41;12.45;;;10.35;;
48623;SDS011;34422;45.802;16.114;2023-06-05T01:48:09;13.20;;;10.90;;
48623;SDS011;34422;45.802;16.114;2023-06-05T01:50:39;17.02;;;11.35;;
48623;SDS011;34422;45.802;16.114;2023-06-05T01:53:08;16.48;;;11.90;;
48623;SDS011;34422;45.802;16.114;2023-06-05T01:55:37;11.50;;;10.00;;
48623;SDS011;34422;45.802;16.114;2023-06-05T01:58:05;14.02;;;11.25;;
48623;SDS011;34422;45.802;16.114;2023-06-05T02:00:32;15.30;;;11.55;;
48623;SDS011;34422;45.802;16.114;2023-06-05T02:03:01;14.38;;;11.45;;
48623;SDS011;34422;45.802;16.114;2023-06-05T02:05:28;12.70;;;10.65;;
48623;SDS011;34422;45.802;16.114;2023-06-05T02:07:56;13.10;;;10.20;;
48623;SDS011;34422;45.802;16.114;2023-06-05T02:10:24;14.38;;;11.00;;
48623;SDS011;34422;45.802;16.114;2023-06-05T02:12:51;13.02;;;10.52;;
48623;SDS011;34422;45.802;16.114;2023-06-05T02:15:18;12.88;;;10.10;;
48623;SDS011;34422;45.802;16.114;2023-06-05T02:17:45;15.45;;;11.30;;
48623;SDS011;34422;45.802;16.114;2023-06-05T02:20:16;12.20;;;10.18;;
48623;SDS011;34422;45.802;16.114;2023-06-05T02:22:44;13.20;;;10.07;;
48623;SDS011;34422;45.802;16.114;2023-06-05T02:25:11;14.57;;;10.63;;
48623;SDS011;34422;45.802;16.114;2023-06-05T02:27:38;15.55;;;10.48;;
48623;SDS011;34422;45.802;16.114;2023-06-05T02:30:06;15.63;;;9.85;;
48623;SDS011;34422;45.802;16.114;2023-06-05T02:32:33;15.45;;;10.98;;
48623;SDS011;34422;45.802;16.114;2023-06-05T02:35:00;15.95;;;11.40;;
48623;SDS011;34422;45.802;16.114;2023-06-05T02:37:27;12.43;;;10.65;;
48623;SDS011;34422;45.802;16.114;2023-06-05T02:39:55;13.27;;;10.70;;
48623;SDS011;34422;45.802;16.114;2023-06-05T02:42:21;13.55;;;10.45;;
48623;SDS011;34422;45.802;16.114;2023-06-05T02:44:49;12.60;;;10.30;;
48623;SDS011;34422;45.802;16.114;2023-06-05T02:47:16;12.00;;;10.10;;
48623;SDS011;34422;45.802;16.114;2023-06-05T02:49:42;14.05;;;10.32;;
48623;SDS011;34422;45.802;16.114;2023-06-05T02:52:09;13.43;;;10.25;;
48623;SDS011;34422;45.802;16.114;2023-06-05T02:54:37;13.60;;;10.32;;
48623;SDS011;34422;45.802;16.114;2023-06-05T02:57:04;13.68;;;11.10;;
48623;SDS011;34422;45.802;16.114;2023-06-05T02:59:33;11.68;;;10.38;;
48623;SDS011;34422;45.802;16.114;2023-06-05T03:02:05;11.95;;;9.75;;
48623;SDS011;34422;45.802;16.114;2023-06-05T03:04:33;11.52;;;9.50;;
48623;SDS011;34422;45.802;16.114;2023-06-05T03:07:00;12.75;;;9.30;;
48623;SDS011;34422;45.802;16.114;2023-06-05T03:09:31;13.10;;;9.45;;
48623;SDS011;34422;45.802;16.114;2023-06-05T03:11:58;14.35;;;10.45;;
48623;SDS011;34422;45.802;16.114;2023-06-05T03:14:25;15.27;;;10.00;;
48623;SDS011;34422;45.802;16.114;2023-06-05T03:16:54;13.25;;;9.90;;
48623;SDS011;34422;45.802;16.114;2023-06-05T03:19:21;12.15;;;9.75;;
48623;SDS011;34422;45.802;16.114;2023-06-05T03:21:48;13.18;;;9.75;;
48623;SDS011;34422;45.802;16.114;2023-06-05T03:24:16;13.02;;;10.18;;
48623;SDS011;34422;45.802;16.114;2023-06-05T03:26:43;14.20;;;11.00;;
48623;SDS011;34422;45.802;16.114;2023-06-05T03:29:10;14.15;;;10.48;;
48623;SDS011;34422;45.802;16.114;2023-06-05T03:31:37;13.82;;;10.30;;
48623;SDS011;34422;45.802;16.114;2023-06-05T03:34:04;12.45;;;9.38;;
48623;SDS011;34422;45.802;16.114;2023-06-05T03:36:32;14.45;;;10.77;;
48623;SDS011;34422;45.802;16.114;2023-06-05T03:39:03;12.20;;;10.35;;
48623;SDS011;34422;45.802;16.114;2023-06-05T03:41:30;12.13;;;10.30;;
48623;SDS011;34422;45.802;16.114;2023-06-05T03:43:57;13.07;;;10.02;;
48623;SDS011;34422;45.802;16.114;2023-06-05T03:46:25;12.95;;;9.98;;
48623;SDS011;34422;45.802;16.114;2023-06-05T03:48:51;15.45;;;10.07;;
48623;SDS011;34422;45.802;16.114;2023-06-05T03:51:25;12.15;;;9.43;;
48623;SDS011;34422;45.802;16.114;2023-06-05T03:53:57;12.32;;;10.30;;
48623;SDS011;34422;45.802;16.114;2023-06-05T03:56:25;12.43;;;10.18;;
48623;SDS011;34422;45.802;16.114;2023-06-05T03:59:00;12.30;;;9.65;;
48623;SDS011;34422;45.802;16.114;2023-06-05T04:01:35;12.50;;;9.45;;
48623;SDS011;34422;45.802;16.114;2023-06-05T04:04:05;13.07;;;10.07;;
48623;SDS011;34422;45.802;16.114;2023-06-05T04:06:32;10.40;;;8.95;;
48623;SDS011;34422;45.802;16.114;2023-06-05T04:08:59;12.82;;;9.18;;
48623;SDS011;34422;45.802;16.114;2023-06-05T04:11:26;11.95;;;9.63;;
48623;SDS011;34422;45.802;16.114;2023-06-05T04:13:56;12.35;;;9.77;;
48623;SDS011;34422;45.802;16.114;2023-06-05T04:16:23;15.43;;;10.37;;
48623;SDS011;34422;45.802;16.114;2023-06-05T04:18:49;13.15;;;9.73;;
48623;SDS011;34422;45.802;16.114;2023-06-05T04:21:16;12.68;;;10.32;;
48623;SDS011;34422;45.802;16.114;2023-06-05T04:23:43;15.52;;;9.88;;
48623;SDS011;34422;45.802;16.114;2023-06-05T04:26:10;12.55;;;9.93;;
48623;SDS011;34422;45.802;16.114;2023-06-05T04:28:38;12.15;;;9.48;;
48623;SDS011;34422;45.802;16.114;2023-06-05T04:31:04;13.05;;;8.88;;
48623;SDS011;34422;45.802;16.114;2023-06-05T04:33:32;14.93;;;9.63;;
48623;SDS011;34422;45.802;16.114;2023-06-05T04:35:59;13.27;;;10.05;;
48623;SDS011;34422;45.802;16.114;2023-06-05T04:38:26;12.35;;;9.90;;
48623;SDS011;34422;45.802;16.114;2023-06-05T04:40:54;13.70;;;10.00;;
48623;SDS011;34422;45.802;16.114;2023-06-05T04:43:21;14.30;;;10.18;;
48623;SDS011;34422;45.802;16.114;2023-06-05T04:45:49;14.63;;;10.30;;
48623;SDS011;34422;45.802;16.114;2023-06-05T04:48:15;12.05;;;9.95;;
48623;SDS011;34422;45.802;16.114;2023-06-05T04:50:42;14.82;;;10.38;;
48623;SDS011;34422;45.802;16.114;2023-06-05T04:53:09;14.30;;;10.43;;
48623;SDS011;34422;45.802;16.114;2023-06-05T04:55:37;19.10;;;16.73;;
48623;SDS011;34422;45.802;16.114;2023-06-05T04:58:03;17.40;;;14.25;;
48623;SDS011;34422;45.802;16.114;2023-06-05T05:00:30;13.35;;;11.32;;
48623;SDS011;34422;45.802;16.114;2023-06-05T05:02:57;14.63;;;12.55;;
48623;SDS011;34422;45.802;16.114;2023-06-05T05:05:25;15.50;;;12.38;;
48623;SDS011;34422;45.802;16.114;2023-06-05T05:07:52;14.35;;;12.43;;
48623;SDS011;34422;45.802;16.114;2023-06-05T05:10:19;22.27;;;19.98;;
48623;SDS011;34422;45.802;16.114;2023-06-05T05:12:46;19.58;;;15.45;;
48623;SDS011;34422;45.802;16.114;2023-06-05T05:15:13;17.05;;;13.27;;
48623;SDS011;34422;45.802;16.114;2023-06-05T05:17:39;18.15;;;14.60;;
48623;SDS011;34422;45.802;16.114;2023-06-05T05:20:06;14.82;;;12.10;;
48623;SDS011;34422;45.802;16.114;2023-06-05T05:22:34;11.65;;;9.35;;
48623;SDS011;34422;45.802;16.114;2023-06-05T05:25:01;12.00;;;8.57;;
48623;SDS011;34422;45.802;16.114;2023-06-05T05:27:28;16.77;;;8.63;;
48623;SDS011;34422;45.802;16.114;2023-06-05T05:29:54;13.07;;;9.68;;
48623;SDS011;34422;45.802;16.114;2023-06-05T05:32:21;12.43;;;9.60;;
48623;SDS011;34422;45.802;16.114;2023-06-05T05:34:48;13.35;;;9.77;;
48623;SDS011;34422;45.802;16.114;2023-06-05T05:37:17;13.90;;;8.98;;
48623;SDS011;34422;45.802;16.114;2023-06-05T05:39:43;12.48;;;9.00;;
48623;SDS011;34422;45.802;16.114;2023-06-05T05:42:11;13.27;;;9.25;;
48623;SDS011;34422;45.802;16.114;2023-06-05T05:44:37;9.75;;;8.73;;
48623;SDS011;34422;45.802;16.114;2023-06-05T05:47:08;13.52;;;8.82;;
48623;SDS011;34422;45.802;16.114;2023-06-05T05:49:35;11.02;;;8.70;;
48623;SDS011;34422;45.802;16.114;2023-06-05T05:52:02;11.02;;;9.13;;
48623;SDS011;34422;45.802;16.114;2023-06-05T05:54:29;12.73;;;9.05;;
48623;SDS011;34422;45.802;16.114;2023-06-05T05:56:56;13.57;;;9.00;;
48623;SDS011;34422;45.802;16.114;2023-06-05T05:59:23;13.13;;;8.25;;
48623;SDS011;34422;45.802;16.114;2023-06-05T06:01:50;12.10;;;8.93;;
48623;SDS011;34422;45.802;16.114;2023-06-05T06:04:17;12.75;;;8.52;;
48623;SDS011;34422;45.802;16.114;2023-06-05T06:06:44;10.77;;;8.02;;
48623;SDS011;34422;45.802;16.114;2023-06-05T06:09:14;13.70;;;9.75;;
48623;SDS011;34422;45.802;16.114;2023-06-05T06:11:41;11.75;;;8.68;;
48623;SDS011;34422;45.802;16.114;2023-06-05T06:14:09;12.15;;;8.05;;
48623;SDS011;34422;45.802;16.114;2023-06-05T06:16:39;12.63;;;9.15;;
48623;SDS011;34422;45.802;16.114;2023-06-05T06:19:06;13.40;;;8.98;;
48623;SDS011;34422;45.802;16.114;2023-06-05T06:21:34;14.60;;;9.10;;
48623;SDS011;34422;45.802;16.114;2023-06-05T06:24:01;10.05;;;8.13;;
48623;SDS011;34422;45.802;16.114;2023-06-05T06:26:29;12.63;;;7.82;;
48623;SDS011;34422;45.802;16.114;2023-06-05T06:28:57;12.75;;;9.00;;
48623;SDS011;34422;45.802;16.114;2023-06-05T06:31:25;12.70;;;8.68;;
48623;SDS011;34422;45.802;16.114;2023-06-05T06:33:52;12.32;;;8.80;;
48623;SDS011;34422;45.802;16.114;2023-06-05T06:36:19;13.65;;;8.85;;
48623;SDS011;34422;45.802;16.114;2023-06-05T06:38:46;11.80;;;8.88;;
48623;SDS011;34422;45.802;16.114;2023-06-05T06:41:12;13.40;;;9.10;;
48623;SDS011;34422;45.802;16.114;2023-06-05T06:43:39;14.70;;;10.35;;
48623;SDS011;34422;45.802;16.114;2023-06-05T06:46:06;13.95;;;9.75;;
48623;SDS011;34422;45.802;16.114;2023-06-05T06:48:33;11.65;;;9.60;;
48623;SDS011;34422;45.802;16.114;2023-06-05T06:51:00;11.90;;;9.80;;
48623;SDS011;34422;45.802;16.114;2023-06-05T06:53:27;13.48;;;10.57;;
48623;SDS011;34422;45.802;16.114;2023-06-05T06:55:54;11.75;;;10.27;;
48623;SDS011;34422;45.802;16.114;2023-06-05T06:58:20;14.20;;;10.82;;
48623;SDS011;34422;45.802;16.114;2023-06-05T07:00:47;14.65;;;11.27;;
48623;SDS011;34422;45.802;16.114;2023-06-05T07:03:15;17.05;;;11.45;;
48623;SDS011;34422;45.802;16.114;2023-06-05T07:05:42;15.23;;;12.80;;
48623;SDS011;34422;45.802;16.114;2023-06-05T07:08:09;15.90;;;11.38;;
48623;SDS011;34422;45.802;16.114;2023-06-05T07:10:36;15.35;;;12.38;;
48623;SDS011;34422;45.802;16.114;2023-06-05T07:13:03;22.13;;;12.93;;
48623;SDS011;34422;45.802;16.114;2023-06-05T07:15:30;17.00;;;13.25;;
48623;SDS011;34422;45.802;16.114;2023-06-05T07:17:56;16.25;;;14.02;;
48623;SDS011;34422;45.802;16.114;2023-06-05T07:20:23;19.20;;;14.18;;
48623;SDS011;34422;45.802;16.114;2023-06-05T07:22:50;18.27;;;14.80;;
48623;SDS011;34422;45.802;16.114;2023-06-05T07:25:17;24.55;;;17.90;;
48623;SDS011;34422;45.802;16.114;2023-06-05T07:27:44;23.65;;;16.58;;
48623;SDS011;34422;45.802;16.114;2023-06-05T07:30:11;21.75;;;18.63;;
48623;SDS011;34422;45.802;16.114;2023-06-05T07:32:41;21.17;;;17.48;;
48623;SDS011;34422;45.802;16.114;2023-06-05T07:35:09;18.80;;;16.05;;
48623;SDS011;34422;45.802;16.114;2023-06-05T07:37:36;19.55;;;15.82;;
48623;SDS011;34422;45.802;16.114;2023-06-05T07:40:03;19.88;;;15.63;;
48623;SDS011;34422;45.802;16.114;2023-06-05T07:42:30;18.75;;;16.48;;
48623;SDS011;34422;45.802;16.114;2023-06-05T07:44:57;18.15;;;16.15;;
48623;SDS011;34422;45.802;16.114;2023-06-05T07:47:23;20.60;;;16.13;;
48623;SDS011;34422;45.802;16.114;2023-06-05T07:50:00;20.40;;;16.33;;
48623;SDS011;34422;45.802;16.114;2023-06-05T07:52:30;17.15;;;15.40;;
48623;SDS011;34422;45.802;16.114;2023-06-05T07:54:57;16.92;;;15.13;;
48623;SDS011;34422;45.802;16.114;2023-06-05T07:57:24;20.75;;;16.42;;
48623;SDS011;34422;45.802;16.114;2023-06-05T07:59:52;27.45;;;17.60;;
48623;SDS011;34422;45.802;16.114;2023-06-05T08:02:20;17.85;;;15.95;;
48623;SDS011;34422;45.802;16.114;2023-06-05T08:04:47;23.67;;;17.27;;
48623;SDS011;34422;45.802;16.114;2023-06-05T08:07:14;18.55;;;15.25;;
48623;SDS011;34422;45.802;16.114;2023-06-05T08:09:41;20.38;;;15.73;;
48623;SDS011;34422;45.802;16.114;2023-06-05T08:12:08;19.40;;;16.17;;
48623;SDS011;34422;45.802;16.114;2023-06-05T08:14:35;19.10;;;16.63;;
48623;SDS011;34422;45.802;16.114;2023-06-05T08:17:03;18.30;;;15.52;;
48623;SDS011;34422;45.802;16.114;2023-06-05T08:19:30;21.75;;;16.63;;
48623;SDS011;34422;45.802;16.114;2023-06-05T08:21:56;18.48;;;16.10;;
48623;SDS011;34422;45.802;16.114;2023-06-05T08:24:23;17.88;;;15.70;;
48623;SDS011;34422;45.802;16.114;2023-06-05T08:26:50;18.50;;;15.73;;
48623;SDS011;34422;45.802;16.114;2023-06-05T08:29:17;18.17;;;15.77;;
48623;SDS011;34422;45.802;16.114;2023-06-05T08:31:44;19.35;;;15.55;;
48623;SDS011;34422;45.802;16.114;2023-06-05T08:34:11;17.98;;;16.05;;
48623;SDS011;34422;45.802;16.114;2023-06-05T08:36:38;17.65;;;15.60;;
48623;SDS011;34422;45.802;16.114;2023-06-05T08:39:05;18.63;;;15.55;;
48623;SDS011;34422;45.802;16.114;2023-06-05T08:41:32;18.33;;;16.20;;
48623;SDS011;34422;45.802;16.114;2023-06-05T08:44:02;24.90;;;19.30;;
48623;SDS011;34422;45.802;16.114;2023-06-05T08:46:29;19.30;;;16.65;;
48623;SDS011;34422;45.802;16.114;2023-06-05T08:48:59;23.38;;;17.73;;
48623;SDS011;34422;45.802;16.114;2023-06-05T08:51:34;21.30;;;17.77;;
48623;SDS011;34422;45.802;16.114;2023-06-05T08:54:04;21.20;;;17.58;;
48623;SDS011;34422;45.802;16.114;2023-06-05T08:56:39;25.15;;;18.88;;
48623;SDS011;34422;45.802;16.114;2023-06-05T08:59:06;22.52;;;19.95;;
48623;SDS011;34422;45.802;16.114;2023-06-05T09:01:33;20.15;;;17.27;;
48623;SDS011;34422;45.802;16.114;2023-06-05T09:04:00;24.15;;;18.40;;
48623;SDS011;34422;45.802;16.114;2023-06-05T09:06:30;25.48;;;19.10;;
48623;SDS011;34422;45.802;16.114;2023-06-05T09:09:00;24.88;;;20.45;;
48623;SDS011;34422;45.802;16.114;2023-06-05T09:11:31;23.63;;;18.65;;
48623;SDS011;34422;45.802;16.114;2023-06-05T09:13:59;24.17;;;20.25;;
48623;SDS011;34422;45.802;16.114;2023-06-05T09:19:01;25.92;;;20.55;;
48623;SDS011;34422;45.802;16.114;2023-06-05T09:21:28;34.65;;;20.73;;
48623;SDS011;34422;45.802;16.114;2023-06-05T09:26:45;24.45;;;19.08;;
48623;SDS011;34422;45.802;16.114;2023-06-05T09:29:12;20.52;;;17.67;;
48623;SDS011;34422;45.802;16.114;2023-06-05T09:31:42;23.67;;;19.95;;
48623;SDS011;34422;45.802;16.114;2023-06-05T09:34:09;19.63;;;17.53;;
48623;SDS011;34422;45.802;16.114;2023-06-05T09:36:45;23.70;;;21.17;;
48623;SDS011;34422;45.802;16.114;2023-06-05T09:39:16;18.25;;;16.10;;
48623;SDS011;34422;45.802;16.114;2023-06-05T09:41:49;17.05;;;14.63;;
48623;SDS011;34422;45.802;16.114;2023-06-05T09:44:18;15.57;;;13.55;;
48623;SDS011;34422;45.802;16.114;2023-06-05T09:46:53;16.95;;;15.15;;
48623;SDS011;34422;45.802;16.114;2023-06-05T09:49:23;17.20;;;11.38;;
48623;SDS011;34422;45.802;16.114;2023-06-05T09:51:51;16.60;;;14.90;;
48623;SDS011;34422;45.802;16.114;2023-06-05T09:54:19;13.90;;;12.45;;
48623;SDS011;34422;45.802;16.114;2023-06-05T09:56:47;16.00;;;11.02;;
48623;SDS011;34422;45.802;16.114;2023-06-05T09:59:18;13.63;;;11.85;;
48623;SDS011;34422;45.802;16.114;2023-06-05T10:01:48;13.18;;;11.77;;
48623;SDS011;34422;45.802;16.114;2023-06-05T10:04:20;13.20;;;10.55;;
48623;SDS011;34422;45.802;16.114;2023-06-05T10:06:54;13.05;;;9.27;;
48623;SDS011;34422;45.802;16.114;2023-06-05T10:09:24;11.65;;;9.75;;
48623;SDS011;34422;45.802;16.114;2023-06-05T10:11:51;12.52;;;9.35;;
48623;SDS011;34422;45.802;16.114;2023-06-05T10:14:19;8.68;;;7.47;;
48623;SDS011;34422;45.802;16.114;2023-06-05T10:16:48;13.07;;;8.45;;
48623;SDS011;34422;45.802;16.114;2023-06-05T10:19:19;12.55;;;8.85;;
48623;SDS011;34422;45.802;16.114;2023-06-05T10:21:47;13.52;;;7.78;;
48623;SDS011;34422;45.802;16.114;2023-06-05T10:24:19;11.55;;;7.90;;
48623;SDS011;34422;45.802;16.114;2023-06-05T10:32:42;14.18;;;8.38;;
48623;SDS011;34422;45.802;16.114;2023-06-05T10:35:26;10.20;;;7.88;;
48623;SDS011;34422;45.802;16.114;2023-06-05T10:40:53;38.58;;;28.10;;
48623;SDS011;34422;45.802;16.114;2023-06-05T10:45:52;10.90;;;8.18;;
48623;SDS011;34422;45.802;16.114;2023-06-05T10:48:19;8.85;;;7.38;;
48623;SDS011;34422;45.802;16.114;2023-06-05T10:50:46;9.23;;;7.40;;
48623;SDS011;34422;45.802;16.114;2023-06-05T10:59:20;9.73;;;6.95;;
48623;SDS011;34422;45.802;16.114;2023-06-05T11:15:02;18.25;;;16.35;;
48623;SDS011;34422;45.802;16.114;2023-06-05T11:17:37;13.27;;;9.23;;
48623;SDS011;34422;45.802;16.114;2023-06-05T11:20:23;9.98;;;7.90;;
48623;SDS011;34422;45.802;16.114;2023-06-05T11:27:54;9.75;;;8.23;;
48623;SDS011;34422;45.802;16.114;2023-06-05T11:30:28;10.02;;;8.40;;
48623;SDS011;34422;45.802;16.114;2023-06-05T11:33:15;8.98;;;8.07;;
48623;SDS011;34422;45.802;16.114;2023-06-05T11:35:44;10.00;;;9.00;;
48623;SDS011;34422;45.802;16.114;2023-06-05T11:38:13;10.95;;;9.85;;
48623;SDS011;34422;45.802;16.114;2023-06-05T11:40:45;11.73;;;10.48;;
48623;SDS011;34422;45.802;16.114;2023-06-05T11:43:12;12.70;;;11.40;;
48623;SDS011;34422;45.802;16.114;2023-06-05T11:45:41;17.33;;;13.82;;
48623;SDS011;34422;45.802;16.114;2023-06-05T11:48:09;14.05;;;12.63;;
48623;SDS011;34422;45.802;16.114;2023-06-05T11:50:38;14.55;;;13.15;;
48623;SDS011;34422;45.802;16.114;2023-06-05T11:53:17;16.08;;;14.48;;
48623;SDS011;34422;45.802;16.114;2023-06-05T11:55:44;15.45;;;13.82;;
48623;SDS011;34422;45.802;16.114;2023-06-05T11:58:36;15.95;;;13.98;;
48623;SDS011;34422;45.802;16.114;2023-06-05T12:03:48;15.93;;;12.57;;
48623;SDS011;34422;45.802;16.114;2023-06-05T12:06:27;17.98;;;13.13;;
48623;SDS011;34422;45.802;16.114;2023-06-05T12:09:06;16.38;;;13.07;;
48623;SDS011;34422;45.802;16.114;2023-06-05T12:11:34;17.10;;;12.88;;
48623;SDS011;34422;45.802;16.114;2023-06-05T12:14:01;16.10;;;13.63;;
48623;SDS011;34422;45.802;16.114;2023-06-05T12:16:32;18.67;;;15.02;;
48623;SDS011;34422;45.802;16.114;2023-06-05T12:19:01;18.50;;;14.57;;
48623;SDS011;34422;45.802;16.114;2023-06-05T12:21:29;16.08;;;14.20;;
48623;SDS011;34422;45.802;16.114;2023-06-05T12:24:05;17.45;;;15.55;;
48623;SDS011;34422;45.802;16.114;2023-06-05T12:29:20;21.25;;;14.75;;
48623;SDS011;34422;45.802;16.114;2023-06-05T12:31:49;24.45;;;15.93;;
48623;SDS011;34422;45.802;16.114;2023-06-05T12:34:16;20.00;;;15.50;;
48623;SDS011;34422;45.802;16.114;2023-06-05T12:36:44;18.33;;;15.02;;
48623;SDS011;34422;45.802;16.114;2023-06-05T12:39:12;17.20;;;15.35;;
48623;SDS011;34422;45.802;16.114;2023-06-05T12:41:40;18.73;;;15.65;;
48623;SDS011;34422;45.802;16.114;2023-06-05T12:44:07;18.30;;;14.63;;
48623;SDS011;34422;45.802;16.114;2023-06-05T12:46:35;18.02;;;16.13;;
48623;SDS011;34422;45.802;16.114;2023-06-05T12:49:02;18.27;;;16.13;;
48623;SDS011;34422;45.802;16.114;2023-06-05T12:51:32;21.58;;;15.75;;
48623;SDS011;34422;45.802;16.114;2023-06-05T12:53:58;18.30;;;15.27;;
48623;SDS011;34422;45.802;16.114;2023-06-05T12:56:25;17.60;;;15.75;;
48623;SDS011;34422;45.802;16.114;2023-06-05T12:58:53;17.95;;;16.08;;
48623;SDS011;34422;45.802;16.114;2023-06-05T13:01:22;18.90;;;16.90;;
48623;SDS011;34422;45.802;16.114;2023-06-05T13:03:55;18.23;;;16.17;;
48623;SDS011;34422;45.802;16.114;2023-06-05T13:06:22;19.10;;;16.20;;
48623;SDS011;34422;45.802;16.114;2023-06-05T13:08:49;19.52;;;17.33;;
48623;SDS011;34422;45.802;16.114;2023-06-05T13:11:18;20.35;;;17.08;;
48623;SDS011;34422;45.802;16.114;2023-06-05T13:13:44;19.85;;;17.75;;
48623;SDS011;34422;45.802;16.114;2023-06-05T13:16:11;20.92;;;18.65;;
48623;SDS011;34422;45.802;16.114;2023-06-05T13:18:38;18.88;;;16.95;;
48623;SDS011;34422;45.802;16.114;2023-06-05T13:21:05;30.83;;;25.90;;
48623;SDS011;34422;45.802;16.114;2023-06-05T13:23:32;27.77;;;23.38;;
48623;SDS011;34422;45.802;16.114;2023-06-05T13:26:00;21.40;;;19.08;;
48623;SDS011;34422;45.802;16.114;2023-06-05T13:28:27;23.13;;;20.65;;
48623;SDS011;34422;45.802;16.114;2023-06-05T13:30:54;17.67;;;15.88;;
48623;SDS011;34422;45.802;16.114;2023-06-05T13:33:22;16.75;;;13.90;;
48623;SDS011;34422;45.802;16.114;2023-06-05T13:35:51;17.05;;;15.02;;
48623;SDS011;34422;45.802;16.114;2023-06-05T13:38:19;15.23;;;13.63;;
48623;SDS011;34422;45.802;16.114;2023-06-05T13:40:48;16.58;;;14.65;;
48623;SDS011;34422;45.802;16.114;2023-06-05T13:43:18;15.60;;;13.93;;
48623;SDS011;34422;45.802;16.114;2023-06-05T13:45:46;16.67;;;14.88;;
48623;SDS011;34422;45.802;16.114;2023-06-05T13:48:13;16.20;;;14.50;;
48623;SDS011;34422;45.802;16.114;2023-06-05T13:50:39;16.60;;;14.93;;
48623;SDS011;34422;45.802;16.114;2023-06-05T13:53:07;17.63;;;15.88;;
48623;SDS011;34422;45.802;16.114;2023-06-05T13:55:33;17.15;;;14.75;;
48623;SDS011;34422;45.802;16.114;2023-06-05T13:58:00;17.60;;;15.63;;
48623;SDS011;34422;45.802;16.114;2023-06-05T14:00:28;20.63;;;14.80;;
48623;SDS011;34422;45.802;16.114;2023-06-05T14:02:56;19.83;;;15.07;;
48623;SDS011;34422;45.802;16.114;2023-06-05T14:05:24;20.45;;;15.73;;
48623;SDS011;34422;45.802;16.114;2023-06-05T14:07:52;18.25;;;15.50;;
48623;SDS011;34422;45.802;16.114;2023-06-05T14:10:20;15.73;;;14.13;;
48623;SDS011;34422;45.802;16.114;2023-06-05T14:12:49;19.05;;;14.85;;
48623;SDS011;34422;45.802;16.114;2023-06-05T14:15:17;16.92;;;15.10;;
48623;SDS011;34422;45.802;16.114;2023-06-05T14:17:45;17.73;;;15.77;;
48623;SDS011;34422;45.802;16.114;2023-06-05T14:20:12;17.17;;;15.00;;
48623;SDS011;34422;45.802;16.114;2023-06-05T14:22:40;16.25;;;14.65;;
48623;SDS011;34422;45.802;16.114;2023-06-05T14:25:07;16.30;;;14.60;;
48623;SDS011;34422;45.802;16.114;2023-06-05T14:27:35;16.58;;;14.50;;
48623;SDS011;34422;45.802;16.114;2023-06-05T14:30:02;17.02;;;14.43;;
48623;SDS011;34422;45.802;16.114;2023-06-05T14:32:29;15.85;;;14.30;;
48623;SDS011;34422;45.802;16.114;2023-06-05T14:34:56;20.13;;;15.38;;
48623;SDS011;34422;45.802;16.114;2023-06-05T14:37:22;17.27;;;15.10;;
48623;SDS011;34422;45.802;16.114;2023-06-05T14:39:49;18.05;;;16.23;;
48623;SDS011;34422;45.802;16.114;2023-06-05T14:42:17;16.45;;;14.68;;
48623;SDS011;34422;45.802;16.114;2023-06-05T14:44:44;16.48;;;14.63;;
48623;SDS011;34422;45.802;16.114;2023-06-05T14:47:11;14.25;;;12.77;;
48623;SDS011;34422;45.802;16.114;2023-06-05T14:49:37;16.17;;;13.85;;
48623;SDS011;34422;45.802;16.114;2023-06-05T14:52:04;15.32;;;13.73;;
48623;SDS011;34422;45.802;16.114;2023-06-05T14:54:31;28.83;;;25.92;;
48623;SDS011;34422;45.802;16.114;2023-06-05T14:56:58;15.65;;;14.05;;
48623;SDS011;34422;45.802;16.114;2023-06-05T14:59:25;18.42;;;16.60;;
48623;SDS011;34422;45.802;16.114;2023-06-05T15:01:52;23.23;;;20.88;;
48623;SDS011;34422;45.802;16.114;2023-06-05T15:04:19;17.92;;;14.45;;
48623;SDS011;34422;45.802;16.114;2023-06-05T15:06:45;24.67;;;21.75;;
48623;SDS011;34422;45.802;16.114;2023-06-05T15:09:12;17.63;;;15.73;;
48623;SDS011;34422;45.802;16.114;2023-06-05T15:11:42;19.50;;;17.50;;